RJOI/IWA METAR and TAF weather

Enter ICAO airport designator
Station Type Date Time Source
RJOI METAR 2020/10/29 16:55 UTC NOAA

RJOI 291655Z 02013KT 9999 FEW030 BKN050 BKN150 17/07 A3011 RMK SLP194 T01670067


Station Type Date Time Source
RJOI Decoded METAR 2020/10/29 16:55 UTC NOAA

MCAS IWAKUNI,JAPAN, JA, Japan (RJOI) 34-09N 132-14E 5M
Oct 29, 2020 - 12:55 PM EDT / 2020.10.29 1655 UTC
Wind: from the NNE (020 degrees) at 15 MPH (13 KT):0
Visibility: greater than 7 mile(s):0
Sky conditions: mostly cloudy
Temperature: 62.1 F (16.7 C)
Dew Point: 44.1 F (6.7 C)
Relative Humidity: 51%
Pressure (altimeter): 30.11 in. Hg (1019 hPa)
ob: RJOI 291655Z 02013KT 9999 FEW030 BKN050 BKN150 17/07 A3011 RMK SLP194 T01670067
cycle: 17

Station Type Date Time Source
RJOI TAF 2020/10/29 16:51 UTC NOAA

TAF TAF
AMD RJOI 2916/3013 03015KT 9999 FEW030 SCT050 BKN150 QNH3008INS
TEMPO 2917/2923 01016G25KT
FM300100 03017G24KT 9999 FEW050 SCT160 QNH3011INS
TEMPO 3001/3004 03020G28KT
FM300400 04017G24KT 9999 FEW045 FEW160 520006 QNH3010INS
TEMPO 3004/3010 04020G28KT
FM301000 04017G26KT 9999 FEW035 520006 QNH3018INS T12/2921Z T18/3005Z
AMD 1630

Example: see airport list